Time;durP1;ratioP1;P1;durP2;ratioP2;P2;SDS_P1;SDS_P2;PMS_P1;PMS_P2;Temp;Humidity;BMP_temperature;BMP_pressure;BME280_temperature;BME280_humidity;BME280_pressure;Samples;Min_cycle;Max_cycle;Signal;HPM_P1;HPM_P2
2023/09/09 00:00:56;;;;;;;14.05;4.93;;;;;;;20.38;60.16;95660.50;5038543;28;20025;-81
2023/09/09 00:03:22;;;;;;;10.13;5.05;;;;;;;20.43;60.32;95668.44;5035457;28;20029;-82
2023/09/09 00:05:48;;;;;;;11.05;5.07;;;;;;;20.39;60.45;95668.28;5052956;28;20039;-82
2023/09/09 00:08:16;;;;;;;12.35;5.22;;;;;;;20.48;60.54;95668.25;5034623;28;20053;-82
2023/09/09 00:10:41;;;;;;;9.95;4.82;;;;;;;20.22;60.46;95632.50;5034038;28;20029;-81
2023/09/09 00:13:07;;;;;;;13.07;6.05;;;;;;;20.12;60.94;95628.28;5033787;28;20376;-81
2023/09/09 00:15:33;;;;;;;10.00;4.95;;;;;;;20.13;61.17;95645.22;5033981;28;20044;-81
2023/09/09 00:18:00;;;;;;;14.55;5.68;;;;;;;20.24;61.58;95666.09;5034007;28;20041;-81
2023/09/09 00:20:36;;;;;;;9.45;5.28;;;;;;;20.18;61.42;95648.53;5033587;28;20123;-82
2023/09/09 00:23:12;;;;;;;8.50;5.22;;;;;;;20.18;61.45;95648.53;5051965;28;20062;-81
2023/09/09 00:25:39;;;;;;;10.45;5.50;;;;;;;20.27;61.52;95654.69;5033850;28;20060;-81
2023/09/09 00:28:08;;;;;;;13.98;6.03;;;;;;;20.07;61.32;95625.75;5052243;28;20143;-81
2023/09/09 00:30:34;;;;;;;14.70;6.22;;;;;;;20.33;61.49;95656.09;5033589;28;20063;-81
2023/09/09 00:33:00;;;;;;;13.95;6.05;;;;;;;20.19;61.85;95643.94;5051553;28;20048;-82
2023/09/09 00:35:32;;;;;;;9.25;5.32;;;;;;;20.19;61.66;95638.56;5033497;28;20119;-81
2023/09/09 00:37:57;;;;;;;11.75;5.80;;;;;;;20.15;62.17;95637.59;5052131;28;20043;-82
2023/09/09 00:40:22;;;;;;;12.90;6.07;;;;;;;20.14;61.97;95634.13;5033935;28;20041;-81
2023/09/09 00:42:48;;;;;;;13.52;5.40;;;;;;;20.15;62.35;95641.09;5033729;28;20052;-82
2023/09/09 00:45:13;;;;;;;11.23;5.13;;;;;;;20.13;62.13;95634.47;5033798;28;20048;-81
2023/09/09 00:47:39;;;;;;;12.35;5.38;;;;;;;20.08;62.18;95626.53;5033464;28;20127;-81
2023/09/09 00:50:09;;;;;;;13.23;5.63;;;;;;;20.18;61.95;95645.03;5033366;28;20044;-81
2023/09/09 00:52:38;;;;;;;11.80;6.10;;;;;;;20.19;62.52;95646.63;5033306;28;20086;-81
2023/09/09 00:55:04;;;;;;;13.55;5.40;;;;;;;19.99;62.74;95624.66;5033037;28;20393;-81
2023/09/09 00:57:29;;;;;;;12.18;5.00;;;;;;;20.13;62.95;95647.94;5016869;28;20040;-81
2023/09/09 00:59:55;;;;;;;11.25;4.80;;;;;;;20.06;62.76;95628.78;5051732;28;20079;-81
2023/09/09 01:02:20;;;;;;;10.23;5.80;;;;;;;19.89;63.35;95627.72;5033119;28;20063;-81
2023/09/09 01:04:45;;;;;;;11.32;5.20;;;;;;;20.06;63.09;95642.25;5051089;28;20045;-81
2023/09/09 01:07:11;;;;;;;12.25;5.70;;;;;;;19.86;63.34;95611.41;5032890;28;20037;-81
2023/09/09 01:09:36;;;;;;;10.63;5.93;;;;;;;19.87;63.42;95619.19;5052745;28;20037;-79
2023/09/09 01:12:03;;;;;;;18.20;5.57;;;;;;;20.00;63.40;95631.63;5044800;28;20094;-81
2023/09/09 01:14:33;;;;;;;9.20;5.20;;;;;;;19.84;63.61;95624.41;5062447;28;20049;-81
2023/09/09 01:16:59;;;;;;;12.90;4.82;;;;;;;19.81;63.67;95606.22;5062511;28;20052;-81
2023/09/09 01:19:25;;;;;;;15.93;5.68;;;;;;;20.00;63.60;95642.41;5042901;28;20045;-81
2023/09/09 01:21:54;;;;;;;10.77;5.53;;;;;;;19.90;63.66;95626.63;5061598;28;20037;-80
2023/09/09 01:24:20;;;;;;;6.97;4.65;;;;;;;19.77;63.55;95608.75;5047262;28;20040;-81
2023/09/09 01:26:46;;;;;;;10.63;6.47;;;;;;;19.97;63.40;95635.00;5047482;28;20032;-81
2023/09/09 01:29:12;;;;;;;8.55;5.05;;;;;;;19.94;63.89;95637.53;5047764;28;20036;-81
2023/09/09 01:31:38;;;;;;;12.55;5.43;;;;;;;19.83;63.69;95625.53;5030606;28;20040;-81
2023/09/09 01:34:04;;;;;;;10.35;5.53;;;;;;;19.59;64.02;95593.78;5047456;28;20085;-81
2023/09/09 01:36:29;;;;;;;11.60;5.38;;;;;;;19.87;63.80;95631.84;5064786;28;20096;-81
2023/09/09 01:38:55;;;;;;;17.48;5.60;;;;;;;19.84;63.68;95627.09;5046574;28;20033;-81
2023/09/09 01:41:20;;;;;;;12.32;5.35;;;;;;;19.76;64.16;95623.31;5047525;28;20064;-81
2023/09/09 01:43:46;;;;;;;11.80;5.60;;;;;;;19.59;64.35;95607.22;5048364;28;20033;-81
2023/09/09 01:46:11;;;;;;;11.05;5.70;;;;;;;19.69;64.31;95611.47;5066414;28;20037;-80
2023/09/09 01:48:37;;;;;;;9.48;4.82;;;;;;;19.57;64.56;95612.91;5065852;28;20043;-81
2023/09/09 01:51:03;;;;;;;9.57;5.60;;;;;;;19.50;64.56;95598.38;5066600;28;20040;-81
2023/09/09 01:53:28;;;;;;;14.07;4.93;;;;;;;19.54;64.68;95616.25;5066139;28;20048;-81
2023/09/09 01:55:56;;;;;;;8.50;4.68;;;;;;;19.67;64.76;95625.25;5047741;28;20037;-81
2023/09/09 01:58:21;;;;;;;13.68;5.75;;;;;;;19.70;64.76;95626.50;5047228;28;20063;-81
2023/09/09 02:00:48;;;;;;;15.70;5.90;;;;;;;19.58;64.69;95614.50;5046859;28;20468;-81
2023/09/09 02:03:13;;;;;;;15.40;6.30;;;;;;;19.62;64.91;95623.50;5046407;28;20037;-81
2023/09/09 02:05:39;;;;;;;13.80;6.15;;;;;;;19.61;65.11;95632.69;5047219;28;20052;-81
2023/09/09 02:08:04;;;;;;;12.02;5.85;;;;;;;19.62;65.00;95628.09;5046199;28;20037;-81
2023/09/09 02:10:30;;;;;;;14.93;6.00;;;;;;;19.66;64.70;95631.75;5064836;28;20092;-80
2023/09/09 02:12:55;;;;;;;12.45;6.18;;;;;;;19.53;65.03;95613.88;5046454;28;20044;-81
2023/09/09 02:15:21;;;;;;;12.25;6.15;;;;;;;19.60;64.92;95619.56;5046683;28;20037;-81
2023/09/09 02:17:46;;;;;;;15.70;6.40;;;;;;;19.57;65.17;95615.59;5047288;28;20115;-81
2023/09/09 02:20:12;;;;;;;15.73;7.07;;;;;;;19.61;65.08;95627.31;5063295;28;20057;-78
2023/09/09 02:22:38;;;;;;;15.02;6.82;;;;;;;19.52;65.16;95631.13;5046362;28;20041;-78
2023/09/09 02:25:04;;;;;;;10.05;6.18;;;;;;;19.35;65.07;95590.78;5064006;28;20449;-78
2023/09/09 02:27:29;;;;;;;10.80;6.20;;;;;;;19.40;65.25;95601.34;5065330;28;20048;-79
2023/09/09 02:29:55;;;;;;;11.98;6.25;;;;;;;19.45;65.25;95609.28;5046772;28;20411;-78
2023/09/09 02:32:20;;;;;;;11.90;6.28;;;;;;;19.36;65.49;95613.88;5064012;28;20037;-79
2023/09/09 02:34:46;;;;;;;12.93;5.93;;;;;;;19.40;65.43;95615.59;5062699;28;20029;-78
2023/09/09 02:37:16;;;;;;;16.00;7.78;;;;;;;19.41;65.41;95616.38;5046058;28;20044;-78
2023/09/09 02:39:42;;;;;;;9.30;5.25;;;;;;;19.48;65.33;95630.97;5045559;28;20040;-78
2023/09/09 02:42:10;;;;;;;16.13;6.80;;;;;;;19.29;65.15;95608.97;5045977;28;20033;-78
2023/09/09 02:44:36;;;;;;;13.25;6.28;;;;;;;19.37;65.30;95618.16;5045674;28;20048;-78
2023/09/09 02:47:01;;;;;;;11.90;6.50;;;;;;;19.28;65.52;95615.47;5063327;28;20479;-78
2023/09/09 02:49:27;;;;;;;11.68;6.35;;;;;;;19.45;65.34;95634.28;5063630;28;20033;-79
2023/09/09 02:51:52;;;;;;;15.98;7.13;;;;;;;19.22;65.86;95609.44;5062795;28;20025;-78
2023/09/09 02:54:18;;;;;;;18.92;7.05;;;;;;;19.12;65.64;95588.28;5064003;28;20029;-78
2023/09/09 02:56:43;;;;;;;10.88;6.47;;;;;;;19.15;65.48;95586.81;5045671;28;20041;-78
2023/09/09 02:59:09;;;;;;;15.80;6.53;;;;;;;18.96;65.90;95556.81;5063839;28;20609;-78
2023/09/09 03:01:34;;;;;;;10.13;5.75;;;;;;;18.87;65.93;95557.59;5045691;28;20032;-78
2023/09/09 03:03:59;;;;;;;15.45;6.85;;;;;;;19.32;66.05;95626.38;5063474;28;20111;-79
2023/09/09 03:06:25;;;;;;;12.57;6.80;;;;;;;18.98;66.39;95582.28;5063520;28;20041;-78
2023/09/09 03:08:50;;;;;;;11.63;5.63;;;;;;;18.94;66.24;95575.94;5063566;28;20035;-79
2023/09/09 03:11:16;;;;;;;8.93;5.85;;;;;;;19.07;66.51;95606.47;5063244;28;20045;-78
2023/09/09 03:13:42;;;;;;;9.35;6.53;;;;;;;19.19;66.53;95620.84;5045024;28;20028;-78
2023/09/09 03:16:08;;;;;;;11.27;6.20;;;;;;;19.05;66.70;95614.84;5063731;28;20047;-78
2023/09/09 03:18:33;;;;;;;14.10;6.40;;;;;;;19.04;66.83;95609.78;5044761;28;20041;-80
2023/09/09 03:20:59;;;;;;;19.30;6.85;;;;;;;19.06;66.87;95616.44;5063395;28;20047;-78
2023/09/09 03:23:24;;;;;;;17.60;7.43;;;;;;;18.70;66.83;95576.38;5063509;28;20093;-78
2023/09/09 03:25:50;;;;;;;11.25;6.43;;;;;;;18.99;67.11;95612.63;5063214;28;20048;-79
2023/09/09 03:28:15;;;;;;;10.25;6.40;;;;;;;18.86;67.00;95606.28;5045620;28;20506;-78
2023/09/09 03:30:58;;;;;;;10.55;6.85;;;;;;;18.99;67.27;95629.53;5041720;28;20061;-81
2023/09/09 03:33:24;;;;;;;12.82;6.55;;;;;;;18.85;67.18;95607.38;5030368;28;20470;-81
2023/09/09 03:35:50;;;;;;;12.40;6.82;;;;;;;18.89;67.19;95627.16;5019540;28;20048;-81
2023/09/09 03:38:16;;;;;;;21.75;8.20;;;;;;;18.44;68.14;95602.41;5036184;28;20037;-81
2023/09/09 03:40:44;;;;;;;16.02;6.63;;;;;;;18.35;68.07;95567.47;5019026;28;20039;-81
2023/09/09 03:43:12;;;;;;;15.57;7.10;;;;;;;18.75;68.09;95631.88;5036258;28;20166;-81
2023/09/09 03:45:37;;;;;;;20.92;7.40;;;;;;;18.28;67.66;95558.28;5034132;28;20396;-81
2023/09/09 03:48:06;;;;;;;19.25;7.90;;;;;;;18.77;67.56;95632.34;5016351;28;20035;-81
2023/09/09 03:50:32;;;;;;;16.45;7.97;;;;;;;18.56;67.76;95615.22;5033783;28;20041;-81
2023/09/09 03:52:58;;;;;;;16.67;7.38;;;;;;;18.70;67.58;95629.31;5033388;28;20067;-81
2023/09/09 03:55:24;;;;;;;20.50;8.40;;;;;;;18.66;67.61;95626.50;5015312;28;20044;-81
2023/09/09 03:57:49;;;;;;;14.43;7.85;;;;;;;18.67;67.62;95621.91;5035439;28;20127;-81
2023/09/09 04:00:15;;;;;;;19.20;7.43;;;;;;;18.54;67.83;95612.84;5054029;28;20074;-81
2023/09/09 04:02:40;;;;;;;16.42;7.60;;;;;;;18.36;67.86;95597.81;5068438;28;20039;-81
2023/09/09 04:05:07;;;;;;;22.02;7.72;;;;;;;18.51;67.68;95616.97;5071603;28;20041;-81
2023/09/09 04:07:35;;;;;;;14.63;7.65;;;;;;;18.43;67.73;95608.88;5054075;28;20032;-82
2023/09/09 04:10:02;;;;;;;23.42;8.52;;;;;;;18.51;67.62;95611.59;5072655;28;20040;-81
2023/09/09 04:12:27;;;;;;;21.75;8.88;;;;;;;18.58;67.56;95629.16;5073062;28;20039;-81
2023/09/09 04:14:53;;;;;;;20.75;8.63;;;;;;;18.28;67.91;95583.25;5071032;28;20415;-81
2023/09/09 04:17:18;;;;;;;17.23;8.82;;;;;;;18.49;67.78;95624.53;5054452;28;20041;-81
2023/09/09 04:19:43;;;;;;;16.05;8.43;;;;;;;18.53;67.95;95635.44;5071955;28;20048;-81
2023/09/09 04:22:09;;;;;;;21.20;9.30;;;;;;;18.05;67.98;95568.34;5071566;28;20040;-81
2023/09/09 04:24:34;;;;;;;20.95;8.60;;;;;;;18.33;68.34;95615.31;5073279;28;20111;-81
2023/09/09 04:27:00;;;;;;;21.17;8.88;;;;;;;18.48;68.13;95630.19;5054808;28;20471;-81
2023/09/09 04:29:25;;;;;;;21.13;8.38;;;;;;;18.05;68.62;95577.19;5072857;28;20062;-81
2023/09/09 04:31:51;;;;;;;20.08;8.88;;;;;;;18.22;68.56;95597.94;5072797;28;20025;-82
2023/09/09 04:34:16;;;;;;;15.35;7.68;;;;;;;18.28;68.69;95615.47;5072101;28;20539;-81
2023/09/09 04:36:42;;;;;;;13.82;7.20;;;;;;;18.08;69.17;95592.66;5054765;28;20085;-81
2023/09/09 04:39:07;;;;;;;15.27;7.90;;;;;;;18.30;69.08;95618.63;5054654;28;20024;-81
2023/09/09 04:41:33;;;;;;;18.90;8.73;;;;;;;18.35;69.22;95637.28;5076057;28;20047;-78
2023/09/09 04:43:58;;;;;;;20.02;9.20;;;;;;;17.98;69.31;95592.94;5077612;28;20422;-77
2023/09/09 04:46:24;;;;;;;13.90;8.75;;;;;;;18.13;69.48;95618.56;5058633;28;20044;-78
2023/09/09 04:48:53;;;;;;;15.85;8.57;;;;;;;17.98;69.34;95590.25;5075501;28;20021;-78
2023/09/09 04:51:18;;;;;;;17.60;8.27;;;;;;;18.28;69.42;95636.16;5058530;28;20039;-78
2023/09/09 04:53:43;;;;;;;26.02;9.10;;;;;;;18.23;69.14;95617.50;5075853;28;20495;-77
2023/09/09 04:56:09;;;;;;;25.88;9.48;;;;;;;18.26;69.21;95625.72;5075990;28;20056;-77
2023/09/09 04:58:34;;;;;;;12.70;6.88;;;;;;;18.03;69.17;95578.59;5077580;28;20071;-77
2023/09/09 05:01:00;;;;;;;17.70;7.32;;;;;;;18.27;69.15;95618.47;5079529;28;20028;-78
2023/09/09 05:03:25;;;;;;;16.67;6.68;;;;;;;18.20;68.88;95597.44;5079016;28;20117;-77
2023/09/09 05:05:51;;;;;;;10.00;6.60;;;;;;;18.12;69.07;95588.25;5079850;28;20028;-78
2023/09/09 05:08:16;;;;;;;11.63;7.15;;;;;;;18.51;69.08;95640.34;5079093;28;20122;-78
2023/09/09 05:10:42;;;;;;;13.48;7.10;;;;;;;18.24;68.87;95592.22;5061838;28;20035;-77
2023/09/09 05:13:07;;;;;;;10.68;6.45;;;;;;;18.14;68.80;95571.84;5061183;28;20028;-78
2023/09/09 05:15:33;;;;;;;12.27;7.30;;;;;;;18.38;68.94;95625.13;5078981;28;20028;-78
2023/09/09 05:17:58;;;;;;;12.43;6.28;;;;;;;18.44;69.23;95622.00;5077621;28;20033;-77
2023/09/09 05:20:24;;;;;;;21.42;6.55;;;;;;;18.44;69.27;95624.69;5079527;28;20078;-78
2023/09/09 05:22:50;;;;;;;21.38;7.32;;;;;;;18.41;69.00;95606.50;5077627;28;20483;-78
2023/09/09 05:25:15;;;;;;;13.00;6.57;;;;;;;18.24;68.82;95579.59;5078998;28;20028;-77
2023/09/09 05:27:41;;;;;;;14.45;7.18;;;;;;;18.62;68.94;95628.22;5077263;28;20036;-79
2023/09/09 05:30:07;;;;;;;19.50;8.20;;;;;;;18.50;68.98;95617.25;5061013;28;20411;-78
2023/09/09 05:32:34;;;;;;;15.05;9.02;;;;;;;18.55;68.89;95621.69;5077685;28;20024;-78
2023/09/09 05:34:59;;;;;;;21.98;7.82;;;;;;;18.56;68.87;95621.41;5057700;28;20276;-81
2023/09/09 05:37:26;;;;;;;17.30;9.20;;;;;;;18.49;68.81;95615.69;5074830;28;20032;-81
2023/09/09 05:39:52;;;;;;;17.90;8.85;;;;;;;18.51;68.44;95608.91;5073550;28;20047;-82
2023/09/09 05:42:17;;;;;;;22.27;9.45;;;;;;;18.64;68.49;95626.00;5073216;28;20033;-81
2023/09/09 05:44:43;;;;;;;13.80;9.18;;;;;;;18.72;68.12;95616.38;5075014;28;20028;-81
2023/09/09 05:47:09;;;;;;;17.85;10.35;;;;;;;18.88;68.06;95639.00;5056415;28;20037;-81
2023/09/09 05:49:34;;;;;;;19.88;9.82;;;;;;;18.89;67.97;95645.97;5073414;28;20040;-81
2023/09/09 05:52:00;;;;;;;27.00;10.63;;;;;;;18.93;67.85;95638.84;5075026;28;20028;-81
2023/09/09 05:54:25;;;;;;;24.35;10.45;;;;;;;18.87;67.79;95624.00;5056719;28;20510;-81
2023/09/09 05:56:50;;;;;;;21.95;9.98;;;;;;;18.98;67.83;95625.28;5074693;28;20090;-81
2023/09/09 05:59:16;;;;;;;21.90;9.88;;;;;;;18.98;67.41;95625.28;5073501;28;20085;-81
2023/09/09 06:01:42;;;;;;;21.23;9.90;;;;;;;18.91;67.44;95616.88;5057355;28;20089;-81
2023/09/09 06:04:07;;;;;;;20.75;9.23;;;;;;;18.93;67.33;95620.03;5056951;28;20124;-82
2023/09/09 06:06:33;;;;;;;19.35;9.68;;;;;;;18.89;67.50;95619.88;5074349;28;20146;-81
2023/09/09 06:08:59;;;;;;;25.35;10.85;;;;;;;18.91;67.46;95618.78;5072842;28;20639;-81
2023/09/09 06:11:25;;;;;;;20.77;10.20;;;;;;;19.09;67.40;95641.88;5073296;28;20055;-81
2023/09/09 06:13:51;;;;;;;19.92;9.77;;;;;;;18.97;66.99;95621.00;5074857;28;20028;-82
2023/09/09 06:16:16;;;;;;;20.17;9.38;;;;;;;18.89;66.72;95600.28;5074759;28;20098;-81
2023/09/09 06:18:41;;;;;;;18.77;8.40;;;;;;;19.05;66.93;95622.91;5072775;28;20032;-82
2023/09/09 06:21:07;;;;;;;15.27;8.35;;;;;;;19.12;66.97;95625.91;5073517;28;20511;-82
2023/09/09 06:23:33;;;;;;;23.02;8.85;;;;;;;19.12;66.72;95625.13;5056983;28;20568;-81
2023/09/09 06:25:58;;;;;;;17.70;8.35;;;;;;;19.12;66.87;95615.16;5056499;28;20152;-81
2023/09/09 06:28:24;;;;;;;15.63;8.10;;;;;;;19.22;66.71;95635.56;5056810;28;20033;-81
2023/09/09 06:30:49;;;;;;;21.10;8.82;;;;;;;19.08;67.25;95630.31;5056259;28;20127;-82
2023/09/09 06:33:14;;;;;;;22.40;8.82;;;;;;;19.03;66.87;95611.66;5073834;28;20042;-81
2023/09/09 06:35:58;;;;;;;15.95;8.23;;;;;;;19.34;66.41;95641.09;5073516;28;20123;-81
2023/09/09 06:38:23;;;;;;;15.95;8.43;;;;;;;19.15;66.52;95614.50;5056506;28;20024;-82
2023/09/09 06:40:49;;;;;;;24.65;8.88;;;;;;;19.14;66.60;95615.63;5074646;28;20041;-81
2023/09/09 06:43:19;;;;;;;16.00;7.97;;;;;;;19.35;66.39;95639.19;5073944;28;20028;-81
2023/09/09 06:45:44;;;;;;;17.20;7.75;;;;;;;19.35;66.31;95644.56;5072478;28;20423;-81
2023/09/09 06:48:10;;;;;;;17.63;8.50;;;;;;;19.10;66.66;95601.22;5073824;28;20031;-82
2023/09/09 06:50:36;;;;;;;18.10;8.50;;;;;;;19.27;66.62;95635.41;5055989;28;20028;-82
2023/09/09 06:53:01;;;;;;;16.80;8.65;;;;;;;19.34;66.24;95624.16;5074204;28;20086;-82
2023/09/09 06:55:28;;;;;;;19.90;7.57;;;;;;;19.35;66.10;95623.03;5055666;28;20040;-81
2023/09/09 06:57:54;;;;;;;16.13;8.57;;;;;;;19.49;65.92;95642.53;5073457;28;20523;-81
2023/09/09 07:00:19;;;;;;;16.45;8.85;;;;;;;19.44;66.20;95648.03;5072099;28;20043;-81
2023/09/09 07:02:45;;;;;;;16.55;9.23;;;;;;;19.53;65.68;95638.88;5072550;28;20029;-81
2023/09/09 07:05:16;;;;;;;19.52;9.65;;;;;;;19.61;65.62;95640.75;5055996;28;20063;-81
2023/09/09 07:07:41;;;;;;;;;;;;;;;19.72;65.32;95643.91;5074359;28;20410;-81
2023/09/09 07:10:08;;;;;;;18.83;9.43;;;;;;;19.73;65.11;95639.31;5073661;28;20010;-81
2023/09/09 07:12:34;;;;;;;16.10;8.80;;;;;;;19.69;64.85;95614.16;5063072;28;20025;-81
2023/09/09 07:14:59;;;;;;;15.93;9.43;;;;;;;19.63;64.49;95606.25;5053798;28;20478;-81
2023/09/09 07:17:25;;;;;;;19.30;10.40;;;;;;;19.94;64.43;95653.66;5035308;28;20039;-82
2023/09/09 07:19:50;;;;;;;16.05;9.68;;;;;;;19.87;64.32;95646.09;5050683;28;20106;-81
2023/09/09 07:22:15;;;;;;;15.38;9.35;;;;;;;19.97;64.04;95644.97;5035274;28;20120;-81
2023/09/09 07:24:41;;;;;;;22.40;9.07;;;;;;;19.88;63.19;95622.66;5052965;28;20048;-82
2023/09/09 07:27:06;;;;;;;19.38;7.70;;;;;;;20.00;62.15;95631.63;5035245;28;20037;-81
2023/09/09 07:29:31;;;;;;;18.85;8.30;;;;;;;20.16;62.00;95642.66;5053718;28;20025;-81
2023/09/09 07:31:57;;;;;;;16.20;7.93;;;;;;;20.11;60.67;95642.06;5051281;28;20060;-81
2023/09/09 07:34:24;;;;;;;16.00;7.28;;;;;;;20.12;60.35;95630.97;5034852;28;20492;-81
2023/09/09 07:36:50;;;;;;;11.35;5.88;;;;;;;20.06;56.38;95618.03;5051205;28;20071;-81
2023/09/09 07:39:16;;;;;;;12.05;6.00;;;;;;;20.01;56.45;95622.44;5053270;28;20067;-81
2023/09/09 07:41:42;;;;;;;8.70;5.47;;;;;;;20.24;56.44;95647.22;5034617;28;20024;-81
2023/09/09 07:44:07;;;;;;;15.95;5.03;;;;;;;20.33;54.94;95648.03;5051324;28;20419;-81
2023/09/09 07:46:33;;;;;;;11.48;5.20;;;;;;;20.30;53.36;95648.63;5053168;28;20048;-82
2023/09/09 07:48:58;;;;;;;7.88;4.70;;;;;;;20.23;53.04;95632.19;5034683;28;20036;-81
2023/09/09 07:51:24;;;;;;;14.63;5.05;;;;;;;20.42;52.29;95629.13;5051273;28;20039;-81
2023/09/09 07:53:49;;;;;;;8.00;5.22;;;;;;;20.46;52.60;95640.81;5050889;28;20116;-81
2023/09/09 07:56:14;;;;;;;15.75;5.80;;;;;;;20.37;53.07;95615.81;5050648;28;20041;-81
2023/09/09 07:58:40;;;;;;;13.23;4.30;;;;;;;20.59;51.57;95644.44;5050846;28;20067;-81
2023/09/09 08:01:07;;;;;;;10.50;4.22;;;;;;;20.66;49.41;95645.50;5057671;28;20037;-78
2023/09/09 08:03:33;;;;;;;15.77;4.55;;;;;;;20.69;48.72;95638.63;5059698;28;20025;-78
2023/09/09 08:06:06;;;;;;;11.40;4.20;;;;;;;20.79;49.15;95638.28;5058049;28;20036;-79
2023/09/09 08:08:35;;;;;;;11.20;4.97;;;;;;;20.64;49.01;95595.72;5059167;28;20025;-78
2023/09/09 08:11:02;;;;;;;9.07;4.53;;;;;;;20.95;48.95;95641.97;5059629;28;20090;-78
2023/09/09 08:13:27;;;;;;;11.63;4.35;;;;;;;20.95;48.51;95627.69;5059710;28;20035;-78
2023/09/09 08:15:53;;;;;;;7.50;3.78;;;;;;;20.66;47.32;95578.13;5059843;28;20069;-78
2023/09/09 08:18:18;;;;;;;9.02;3.58;;;;;;;20.87;46.67;95596.19;5061310;28;20037;-78
2023/09/09 08:20:44;;;;;;;7.50;3.45;;;;;;;21.04;46.00;95621.13;5055839;28;20049;-81
2023/09/09 08:23:09;;;;;;;4.13;3.17;;;;;;;21.09;44.60;95623.63;5034427;28;20075;-81
2023/09/09 08:25:35;;;;;;;16.00;3.65;;;;;;;21.15;45.14;95624.22;5050785;28;20428;-81
2023/09/09 08:28:03;;;;;;;9.90;3.97;;;;;;;21.21;45.01;95611.38;5052203;28;20021;-82
2023/09/09 08:30:32;;;;;;;7.63;3.15;;;;;;;21.23;44.43;95595.63;5052508;28;20037;-82
2023/09/09 08:32:58;;;;;;;11.23;3.30;;;;;;;21.36;42.49;95621.56;5054001;28;20049;-82
2023/09/09 08:35:24;;;;;;;5.43;3.03;;;;;;;21.31;43.02;95600.94;5056640;28;20444;-81
2023/09/09 08:37:50;;;;;;;8.23;3.63;;;;;;;21.24;43.57;95573.72;5038402;28;20052;-81
2023/09/09 08:40:16;;;;;;;9.13;3.55;;;;;;;21.52;42.76;95607.09;5038691;28;20039;-82
2023/09/09 08:43:08;;;;;;;8.93;3.72;;;;;;;21.48;42.34;95581.91;5038474;28;20128;-81
2023/09/09 08:45:56;;;;;;;15.73;3.55;;;;;;;21.40;41.94;95549.59;5038782;28;20036;-81
2023/09/09 08:48:23;;;;;;;7.53;3.28;;;;;;;21.63;41.93;95583.19;5055059;28;20033;-81
2023/09/09 08:50:52;;;;;;;3.75;2.70;;;;;;;21.88;41.16;95600.22;5055421;28;20040;-81
2023/09/09 08:53:21;;;;;;;14.13;3.35;;;;;;;21.87;40.70;95585.16;5038298;28;20047;-81
2023/09/09 08:55:47;;;;;;;7.15;2.83;;;;;;;21.77;39.79;95575.56;5038738;28;20037;-81
2023/09/09 08:58:14;;;;;;;7.50;2.58;;;;;;;21.91;39.41;95596.84;5056879;28;20044;-81
2023/09/09 09:00:39;;;;;;;7.45;2.90;;;;;;;22.06;39.50;95601.63;5056185;28;20430;-81
2023/09/09 09:03:05;;;;;;;7.93;3.00;;;;;;;22.14;39.36;95606.13;5057016;28;20091;-81
2023/09/09 09:05:32;;;;;;;6.55;3.03;;;;;;;22.01;39.53;95574.06;5056046;28;20500;-82
2023/09/09 09:07:58;;;;;;;8.45;3.20;;;;;;;22.11;37.89;95603.34;5057832;28;20029;-81
2023/09/09 09:10:24;;;;;;;7.68;3.22;;;;;;;22.05;37.85;95575.72;5057574;28;20025;-77
2023/09/09 09:12:49;;;;;;;8.48;3.60;;;;;;;22.13;38.57;95592.97;5041575;28;20033;-77
2023/09/09 09:15:16;;;;;;;6.35;3.42;;;;;;;22.21;38.41;95590.16;5056852;28;20021;-77
2023/09/09 09:17:42;;;;;;;6.00;2.58;;;;;;;22.29;38.65;95586.56;5040310;28;20344;-78
2023/09/09 09:20:28;;;;;;;9.48;3.47;;;;;;;22.23;38.04;95571.69;5039864;28;20068;-77
2023/09/09 09:23:00;;;;;;;7.63;3.00;;;;;;;22.42;38.26;95600.09;5056232;28;20102;-77
2023/09/09 09:25:26;;;;;;;11.20;3.30;;;;;;;22.46;39.03;95588.25;5056560;28;20046;-78
2023/09/09 09:27:55;;;;;;;7.80;2.92;;;;;;;22.39;37.35;95562.91;5039628;28;20028;-77
2023/09/09 09:30:24;;;;;;;10.90;2.75;;;;;;;22.63;37.36;95593.41;5060984;28;20044;-81
2023/09/09 09:32:54;;;;;;;6.75;3.00;;;;;;;22.59;37.68;95576.28;5069243;28;20037;-80
2023/09/09 09:35:29;;;;;;;2.83;2.20;;;;;;;22.79;36.75;95588.13;5070609;28;20033;-80
2023/09/09 09:37:58;;;;;;;5.38;3.08;;;;;;;22.93;36.38;95587.75;5068231;28;20037;-81
2023/09/09 09:40:24;;;;;;;7.00;2.38;;;;;;;22.64;34.84;95540.16;5064017;28;20032;-78
2023/09/09 09:42:52;;;;;;;3.55;2.38;;;;;;;22.79;35.32;95552.97;5060584;28;20095;-78
2023/09/09 09:45:24;;;;;;;5.20;2.95;;;;;;;23.02;35.55;95575.69;5061598;28;20029;-78
2023/09/09 09:47:50;;;;;;;10.95;2.90;;;;;;;22.97;35.15;95548.84;5062190;28;20029;-78
2023/09/09 09:50:30;;;;;;;7.72;2.78;;;;;;;23.15;34.44;95562.09;5062263;28;20040;-78
2023/09/09 09:52:57;;;;;;;7.03;3.45;;;;;;;23.15;34.32;95560.19;5042930;28;20037;-78
2023/09/09 09:55:23;;;;;;;3.90;2.50;;;;;;;23.29;33.29;95560.56;5043303;28;20097;-78
2023/09/09 09:57:52;;;;;;;7.43;2.42;;;;;;;23.59;32.29;95523.13;5060389;28;20037;-78
2023/09/09 10:00:18;;;;;;;6.68;2.33;;;;;;;24.61;32.18;95553.88;5063059;28;20032;-79
2023/09/09 10:02:49;;;;;;;5.22;2.40;;;;;;;25.37;30.92;95549.66;5060153;28;20021;-78
2023/09/09 10:05:15;;;;;;;3.30;2.05;;;;;;;26.07;29.59;95495.03;5060685;28;20060;-79
2023/09/09 10:07:45;;;;;;;8.23;2.28;;;;;;;27.41;28.41;95549.75;5061965;28;20040;-78
2023/09/09 10:10:15;;;;;;;3.50;2.30;;;;;;;27.70;26.34;95532.56;5065471;28;20078;-80
2023/09/09 10:13:06;;;;;;;6.70;2.85;;;;;;;28.55;25.60;95543.44;5057435;28;20072;-81
2023/09/09 10:15:33;;;;;;;5.68;2.53;;;;;;;29.15;24.45;95519.22;5067722;22;20548;-77
2023/09/09 10:18:00;;;;;;;13.40;3.72;;;;;;;30.16;23.70;95544.47;5038980;28;20061;-76
2023/09/09 10:20:26;;;;;;;5.28;2.20;;;;;;;30.78;22.49;95535.84;5040865;28;20098;-76
2023/09/09 10:22:59;;;;;;;4.20;2.05;;;;;;;31.15;21.99;95540.84;5020337;28;20084;-76
2023/09/09 10:25:26;;;;;;;6.15;2.38;;;;;;;31.68;21.17;95526.13;5020528;28;20030;-77
2023/09/09 10:27:52;;;;;;;3.70;2.00;;;;;;;31.61;21.11;95517.97;5018475;28;20022;-77
2023/09/09 10:30:19;;;;;;;7.57;2.20;;;;;;;32.23;20.38;95539.91;5040400;28;20049;-76
2023/09/09 10:32:44;;;;;;;5.20;2.10;;;;;;;32.33;19.72;95535.50;5039156;28;20021;-76
2023/09/09 10:35:11;;;;;;;2.85;2.10;;;;;;;32.18;20.17;95523.88;5037911;28;20126;-75
2023/09/09 10:37:37;;;;;;;5.78;2.38;;;;;;;32.23;20.54;95460.31;5020768;28;20045;-76
2023/09/09 10:40:04;;;;;;;4.35;2.08;;;;;;;32.51;19.49;95525.91;5040697;28;20033;-77
2023/09/09 10:42:31;;;;;;;5.03;1.95;;;;;;;32.52;19.68;95527.47;5019345;28;20072;-76
2023/09/09 10:45:28;;;;;;;4.22;2.00;;;;;;;32.72;19.04;95522.25;5038199;28;20029;-76
2023/09/09 10:48:07;;;;;;;3.22;1.80;;;;;;;32.95;19.31;95522.38;5037919;28;20475;-76
2023/09/09 10:50:47;;;;;;;6.18;2.00;;;;;;;33.03;19.65;95516.81;5037201;28;20171;-76
2023/09/09 10:53:13;;;;;;;3.28;2.00;;;;;;;33.08;18.71;95517.13;5036512;28;20111;-78
2023/09/09 10:55:39;;;;;;;9.85;2.45;;;;;;;33.23;18.66;95495.78;5016702;28;20110;-79
2023/09/09 10:58:09;;;;;;;7.55;2.40;;;;;;;33.00;19.09;95479.16;5019405;28;20029;-79
2023/09/09 11:00:40;;;;;;;6.78;2.33;;;;;;;33.01;19.14;95478.75;5016073;28;20034;-79
2023/09/09 11:03:11;;;;;;;6.25;1.90;;;;;;;33.25;18.46;95491.44;5033264;28;20037;-79
2023/09/09 11:05:56;;;;;;;4.50;1.98;;;;;;;33.45;18.60;95508.06;5032056;28;20105;-79
2023/09/09 11:08:30;;;;;;;4.72;1.88;;;;;;;33.42;17.91;95497.88;5015354;28;20036;-79
2023/09/09 11:11:12;;;;;;;6.75;2.03;;;;;;;33.68;17.92;95497.13;5033313;28;20066;-79
2023/09/09 11:13:53;;;;;;;5.75;1.90;;;;;;;33.61;18.18;95496.44;5014869;28;20087;-79
2023/09/09 11:16:33;;;;;;;6.45;2.17;;;;;;;33.51;18.44;95500.88;5014925;28;20054;-78
2023/09/09 11:19:04;;;;;;;2.50;1.73;;;;;;;33.63;18.33;95475.59;5015026;28;20076;-78
2023/09/09 11:21:33;;;;;;;5.45;1.92;;;;;;;33.47;19.44;95494.69;5014907;28;20034;-78
2023/09/09 11:23:59;;;;;;;5.57;2.08;;;;;;;33.78;18.38;95508.41;5035191;28;20045;-77
2023/09/09 11:26:26;;;;;;;8.25;1.83;;;;;;;32.98;18.42;95490.53;5021941;28;20057;-77